createdAt,value
2017-09-05T00:01:39.657Z,18.00
2017-09-05T00:04:05.782Z,18.00
2017-09-05T00:06:31.851Z,17.90
2017-09-05T00:09:00.298Z,17.90
2017-09-05T00:11:27.354Z,17.90
2017-09-05T00:13:54.198Z,17.90
2017-09-05T00:16:30.089Z,17.90
2017-09-05T00:22:07.192Z,17.90
2017-09-05T00:24:35.651Z,18.00
2017-09-05T00:27:02.330Z,17.80
2017-09-05T00:29:29.529Z,17.80
2017-09-05T00:31:55.527Z,17.80
2017-09-05T00:34:23.977Z,17.80
2017-09-05T00:36:50.041Z,17.90
2017-09-05T00:39:17.193Z,17.90
2017-09-05T00:41:45.075Z,17.90
2017-09-05T00:44:11.631Z,17.90
2017-09-05T00:46:40.460Z,17.80
2017-09-05T00:49:08.271Z,17.80
2017-09-05T00:51:36.754Z,17.70
2017-09-05T00:54:04.019Z,17.70
2017-09-05T00:56:31.899Z,17.70
2017-09-05T00:58:59.473Z,17.70
2017-09-05T01:01:27.456Z,17.60
2017-09-05T01:03:55.634Z,17.60
2017-09-05T01:06:24.239Z,17.50
2017-09-05T01:08:51.079Z,17.50
2017-09-05T01:11:18.556Z,17.40
2017-09-05T01:13:47.017Z,17.50
2017-09-05T01:16:15.713Z,17.60
2017-09-05T01:18:44.823Z,17.60
2017-09-05T01:21:12.410Z,17.60
2017-09-05T01:23:40.694Z,17.70
2017-09-05T01:26:08.663Z,17.70
2017-09-05T01:28:35.682Z,17.70
2017-09-05T01:31:03.202Z,17.70
2017-09-05T01:33:32.748Z,17.60
2017-09-05T01:36:00.264Z,17.50
2017-09-05T01:38:27.376Z,17.50
2017-09-05T01:40:55.674Z,17.50
2017-09-05T01:43:31.614Z,17.50
2017-09-05T01:46:00.085Z,17.50
2017-09-05T01:48:30.990Z,17.60
2017-09-05T01:50:59.750Z,17.60
2017-09-05T01:53:29.347Z,17.50
2017-09-05T01:55:59.468Z,17.40
2017-09-05T01:58:25.960Z,17.50
2017-09-05T02:00:55.002Z,17.40
2017-09-05T02:03:22.050Z,17.40
2017-09-05T02:05:48.746Z,17.40
2017-09-05T02:08:18.063Z,17.30
2017-09-05T02:10:46.166Z,17.30
2017-09-05T02:13:15.131Z,17.20
2017-09-05T02:15:42.830Z,17.20
2017-09-05T02:18:11.270Z,17.20
2017-09-05T02:20:41.460Z,17.10
2017-09-05T02:23:08.449Z,17.20
2017-09-05T02:25:35.313Z,17.20
2017-09-05T02:28:02.001Z,17.10
2017-09-05T02:30:28.024Z,17.00
2017-09-05T02:33:00.033Z,16.90
2017-09-05T02:35:27.951Z,17.00
2017-09-05T02:37:57.185Z,17.00
2017-09-05T02:40:24.094Z,17.10
2017-09-05T02:42:54.873Z,17.20
2017-09-05T02:45:22.860Z,17.00
2017-09-05T02:47:51.829Z,17.00
2017-09-05T02:50:21.428Z,17.00
2017-09-05T02:52:50.708Z,17.10
2017-09-05T02:55:20.056Z,17.10
2017-09-05T02:57:48.941Z,17.00
2017-09-05T03:00:15.777Z,17.00
2017-09-05T03:02:41.951Z,17.00
2017-09-05T03:05:08.917Z,16.80
2017-09-05T03:07:36.509Z,16.70
2017-09-05T03:10:05.206Z,16.70
2017-09-05T03:12:31.584Z,16.70
2017-09-05T03:14:59.489Z,16.70
2017-09-05T03:17:25.888Z,16.70
2017-09-05T03:19:54.223Z,16.70
2017-09-05T03:22:20.854Z,16.70
2017-09-05T03:24:56.590Z,16.70
2017-09-05T03:27:25.203Z,16.70
2017-09-05T03:29:54.882Z,16.70
2017-09-05T03:32:24.821Z,16.80
2017-09-05T03:34:55.609Z,16.60
2017-09-05T03:37:24.837Z,16.60
2017-09-05T03:39:53.197Z,16.60
2017-09-05T03:42:19.356Z,16.50
2017-09-05T03:44:47.549Z,16.50
2017-09-05T03:47:17.208Z,16.40
2017-09-05T03:49:47.783Z,16.40
2017-09-05T03:52:13.835Z,16.40
2017-09-05T03:54:40.891Z,16.40
2017-09-05T03:57:10.155Z,16.40
2017-09-05T03:59:36.769Z,16.40
2017-09-05T04:02:02.790Z,16.40
2017-09-05T04:04:28.827Z,16.30
2017-09-05T04:06:55.526Z,16.30
2017-09-05T04:09:22.329Z,16.40
2017-09-05T04:11:50.267Z,16.40
2017-09-05T04:14:16.347Z,16.30
2017-09-05T04:16:43.319Z,16.50
2017-09-05T04:19:12.768Z,16.50
2017-09-05T04:21:39.249Z,16.50
2017-09-05T04:24:08.189Z,16.40
2017-09-05T04:26:35.415Z,16.30
2017-09-05T04:29:01.439Z,16.30
2017-09-05T04:31:30.940Z,16.30
2017-09-05T04:33:59.774Z,16.30
2017-09-05T04:36:27.403Z,16.20
2017-09-05T04:38:53.498Z,16.20
2017-09-05T04:41:19.533Z,16.20
2017-09-05T04:43:47.396Z,16.20
2017-09-05T04:46:17.786Z,16.20
2017-09-05T04:48:44.315Z,16.20
2017-09-05T04:51:14.919Z,16.20
2017-09-05T04:53:42.175Z,16.20
2017-09-05T04:56:11.009Z,16.20
2017-09-05T04:58:38.893Z,16.20
2017-09-05T05:01:06.306Z,16.30
2017-09-05T05:03:35.113Z,16.10
2017-09-05T05:06:04.363Z,16.10
2017-09-05T05:08:31.916Z,16.20
2017-09-05T05:11:03.916Z,16.20
2017-09-05T05:13:30.282Z,16.10
2017-09-05T05:15:57.144Z,16.10
2017-09-05T05:18:23.336Z,16.10
2017-09-05T05:20:51.305Z,16.10
2017-09-05T05:23:25.662Z,16.10
2017-09-05T05:25:51.754Z,16.10
2017-09-05T05:28:21.055Z,16.10
2017-09-05T05:30:49.022Z,16.10
2017-09-05T05:33:18.217Z,16.20
2017-09-05T05:35:45.422Z,16.10
2017-09-05T05:38:13.076Z,16.30
2017-09-05T05:40:39.261Z,16.20
2017-09-05T05:43:05.284Z,16.30
2017-09-05T05:45:34.379Z,16.10
2017-09-05T05:48:01.129Z,16.20
2017-09-05T05:50:32.719Z,16.20
2017-09-05T05:53:00.430Z,16.20
2017-09-05T05:55:26.760Z,16.30
2017-09-05T05:57:53.760Z,16.30
2017-09-05T06:00:21.011Z,16.30
2017-09-05T06:05:19.175Z,16.40
2017-09-05T06:10:19.099Z,16.40
2017-09-05T06:12:48.443Z,16.40
2017-09-05T06:15:20.985Z,16.40
2017-09-05T06:17:48.580Z,16.50
2017-09-05T06:20:18.961Z,16.50
2017-09-05T06:22:45.851Z,16.50
2017-09-05T06:25:16.354Z,16.60
2017-09-05T06:27:42.380Z,16.60
2017-09-05T06:30:10.626Z,16.60
2017-09-05T06:32:37.696Z,16.70
2017-09-05T06:35:05.383Z,16.70
2017-09-05T06:37:32.019Z,16.80
2017-09-05T06:39:59.120Z,16.70
2017-09-05T06:42:26.536Z,17.00
2017-09-05T06:44:54.701Z,17.10
2017-09-05T06:47:23.131Z,17.10
2017-09-05T06:49:52.854Z,17.10
2017-09-05T06:52:21.396Z,17.20
2017-09-05T06:54:47.580Z,17.20
2017-09-05T06:57:15.692Z,17.20
2017-09-05T06:59:42.727Z,17.20
2017-09-05T07:02:09.641Z,17.20
2017-09-05T07:04:35.649Z,17.10
2017-09-05T07:07:04.271Z,17.10
2017-09-05T07:09:30.307Z,17.10
2017-09-05T07:11:57.875Z,17.20
2017-09-05T07:14:26.189Z,17.30
2017-09-05T07:16:53.041Z,17.50
2017-09-05T07:19:28.901Z,17.60
2017-09-05T07:21:56.409Z,17.70
2017-09-05T07:24:23.717Z,17.70
2017-09-05T07:26:50.015Z,17.80
2017-09-05T07:29:16.791Z,18.00
2017-09-05T07:31:43.787Z,17.90
2017-09-05T07:34:09.839Z,17.90
2017-09-05T07:36:36.496Z,17.90
2017-09-05T07:39:02.564Z,17.80
2017-09-05T07:41:28.699Z,17.70
2017-09-05T07:43:54.769Z,17.80
2017-09-05T07:46:20.808Z,17.60
2017-09-05T07:48:48.333Z,17.90
2017-09-05T07:51:14.712Z,17.80
2017-09-05T07:53:44.615Z,17.80
2017-09-05T07:56:11.857Z,17.80
2017-09-05T08:01:13.325Z,17.90
2017-09-05T08:06:26.958Z,18.10
2017-09-05T08:08:53.042Z,18.20
2017-09-05T08:13:53.744Z,18.50
2017-09-05T08:16:20.629Z,18.70
2017-09-05T08:18:47.046Z,18.90
2017-09-05T08:21:13.273Z,18.90
2017-09-05T08:23:39.345Z,18.90
2017-09-05T08:26:06.189Z,19.00
2017-09-05T08:28:34.553Z,19.20
2017-09-05T08:33:32.568Z,19.10
2017-09-05T08:35:59.606Z,19.00
2017-09-05T08:38:25.696Z,18.80
2017-09-05T08:40:51.766Z,18.70
2017-09-05T08:43:18.116Z,18.90
2017-09-05T08:48:22.762Z,19.10
2017-09-05T08:50:49.750Z,19.10
2017-09-05T08:53:16.796Z,19.10
2017-09-05T08:55:42.751Z,19.10
2017-09-05T08:58:10.488Z,19.10
2017-09-05T09:00:41.787Z,19.40
2017-09-05T09:03:07.862Z,19.50
2017-09-05T09:05:33.931Z,19.60
2017-09-05T09:07:59.906Z,19.70
2017-09-05T09:10:26.038Z,19.60
2017-09-05T09:12:56.971Z,19.60
2017-09-05T09:15:23.324Z,19.70
2017-09-05T09:17:50.214Z,19.70
2017-09-05T09:20:18.285Z,19.70
2017-09-05T09:22:45.781Z,19.60
2017-09-05T09:25:11.794Z,19.50
2017-09-05T09:27:39.054Z,19.70
2017-09-05T09:30:05.727Z,19.80
2017-09-05T09:32:31.806Z,19.90
2017-09-05T09:34:57.836Z,20.10
2017-09-05T09:37:24.163Z,20.30
2017-09-05T09:39:50.228Z,20.30
2017-09-05T09:42:18.997Z,20.20
2017-09-05T09:44:48.641Z,20.20
2017-09-05T09:47:14.712Z,20.50
2017-09-05T09:49:41.491Z,20.60
2017-09-05T09:52:07.527Z,20.80
2017-09-05T09:57:06.641Z,20.90
2017-09-05T09:59:35.076Z,21.00
2017-09-05T10:02:01.114Z,21.00
2017-09-05T10:04:28.910Z,21.10
2017-09-05T10:06:55.398Z,21.10
2017-09-05T10:09:22.466Z,21.20
2017-09-05T10:11:48.503Z,21.40
2017-09-05T10:14:20.691Z,21.40
2017-09-05T10:16:47.250Z,21.20
2017-09-05T10:19:34.864Z,21.30
2017-09-05T10:22:00.953Z,21.40
2017-09-05T10:24:27.056Z,21.40
2017-09-05T10:26:54.015Z,21.40
2017-09-05T10:29:20.933Z,21.40
2017-09-05T10:31:46.984Z,21.60
2017-09-05T10:34:13.776Z,21.90
2017-09-05T10:36:39.849Z,22.30
2017-09-05T10:39:06.736Z,22.40
2017-09-05T10:41:32.945Z,22.30
2017-09-05T10:43:59.819Z,22.40
2017-09-05T10:46:25.883Z,22.60
2017-09-05T10:48:53.744Z,22.50
2017-09-05T10:51:20.893Z,22.40
2017-09-05T10:53:47.124Z,22.50
2017-09-05T10:56:13.128Z,22.90
2017-09-05T10:58:39.500Z,23.00
2017-09-05T11:01:07.493Z,23.00
2017-09-05T11:03:34.308Z,23.10
2017-09-05T11:06:02.026Z,23.20
2017-09-05T11:08:28.047Z,23.50
2017-09-05T11:10:54.136Z,23.70
2017-09-05T11:13:22.091Z,23.90
2017-09-05T11:15:50.130Z,23.90
2017-09-05T11:18:17.482Z,23.70
2017-09-05T11:20:43.535Z,23.90
2017-09-05T11:23:12.743Z,24.10
2017-09-05T11:25:38.775Z,24.40
2017-09-05T11:28:04.763Z,24.30
2017-09-05T11:30:31.024Z,24.40
2017-09-05T11:32:58.028Z,24.30
2017-09-05T11:35:24.363Z,23.80
2017-09-05T11:37:50.689Z,23.80
2017-09-05T11:40:17.739Z,23.50
2017-09-05T11:42:46.447Z,23.60
2017-09-05T11:45:12.592Z,23.80
2017-09-05T11:47:38.633Z,23.80
2017-09-05T11:50:04.706Z,23.80
2017-09-05T11:52:30.977Z,24.20
2017-09-05T11:54:58.186Z,24.50
2017-09-05T11:57:24.304Z,24.40
2017-09-05T11:59:50.591Z,24.30
2017-09-05T12:02:16.610Z,24.40
2017-09-05T12:04:42.623Z,24.50
2017-09-05T12:07:10.318Z,24.80
2017-09-05T12:12:07.672Z,24.80
2017-09-05T12:14:37.237Z,25.00
2017-09-05T12:17:03.296Z,25.20
2017-09-05T12:19:37.127Z,25.40
2017-09-05T12:22:03.777Z,25.00
2017-09-05T12:27:08.199Z,25.10
2017-09-05T12:29:35.167Z,25.20
2017-09-05T12:32:01.851Z,25.70
2017-09-05T12:34:29.986Z,25.90
2017-09-05T12:36:56.046Z,26.00
2017-09-05T12:39:22.167Z,25.70
2017-09-05T12:41:50.856Z,25.70
2017-09-05T12:44:17.196Z,26.10
2017-09-05T12:46:45.574Z,26.30
2017-09-05T12:49:13.105Z,26.40
2017-09-05T12:51:39.179Z,26.30
2017-09-05T12:54:09.011Z,26.10
2017-09-05T12:56:38.347Z,25.90
2017-09-05T12:59:05.924Z,25.70
2017-09-05T13:01:32.660Z,25.70
2017-09-05T13:04:03.992Z,25.90
2017-09-05T13:06:31.552Z,25.60
2017-09-05T13:09:04.411Z,25.30
2017-09-05T13:11:30.496Z,25.20
2017-09-05T13:14:01.688Z,25.10
2017-09-05T13:16:29.685Z,25.30
2017-09-05T13:18:55.801Z,25.60
2017-09-05T13:21:23.755Z,26.00
2017-09-05T13:23:50.973Z,26.50
2017-09-05T13:26:20.054Z,26.60
2017-09-05T13:28:47.982Z,26.60
2017-09-05T13:31:14.032Z,27.10
2017-09-05T13:33:40.808Z,27.10
2017-09-05T13:36:08.218Z,26.80
2017-09-05T13:38:34.432Z,26.70
2017-09-05T13:41:01.200Z,27.00
2017-09-05T13:43:28.315Z,27.30
2017-09-05T13:45:54.471Z,27.30
2017-09-05T13:48:20.741Z,27.50
2017-09-05T13:50:50.858Z,27.40
2017-09-05T13:53:17.916Z,27.30
2017-09-05T13:55:43.947Z,27.40
2017-09-05T13:58:09.895Z,27.20
2017-09-05T14:00:36.586Z,27.00
2017-09-05T14:03:02.749Z,27.00
2017-09-05T14:05:29.379Z,26.90
2017-09-05T14:07:55.352Z,26.70
2017-09-05T14:10:22.804Z,26.30
2017-09-05T14:12:48.809Z,25.80
2017-09-05T14:15:15.577Z,25.50
2017-09-05T14:17:42.095Z,25.40
2017-09-05T14:20:08.871Z,25.40
2017-09-05T14:22:35.783Z,25.70
2017-09-05T14:25:02.363Z,26.00
2017-09-05T14:27:30.495Z,26.20
2017-09-05T14:29:57.037Z,26.30
2017-09-05T14:32:23.067Z,26.60
2017-09-05T14:37:26.680Z,27.00
2017-09-05T14:39:54.371Z,26.60
2017-09-05T14:42:21.952Z,26.30
2017-09-05T14:44:52.050Z,26.40
2017-09-05T14:47:18.295Z,26.50
2017-09-05T14:49:45.028Z,26.50
2017-09-05T14:52:15.736Z,26.60
2017-09-05T14:54:41.793Z,26.70
2017-09-05T14:57:07.797Z,26.40
2017-09-05T14:59:35.108Z,25.90
2017-09-05T15:02:01.115Z,25.90
2017-09-05T15:04:27.048Z,26.00
2017-09-05T15:06:53.108Z,25.70
2017-09-05T15:09:19.061Z,25.50
2017-09-05T15:11:46.198Z,25.70
2017-09-05T15:14:13.812Z,25.60
2017-09-05T15:16:42.098Z,25.60
2017-09-05T15:19:08.493Z,25.60
2017-09-05T15:21:36.858Z,25.40
2017-09-05T15:24:03.800Z,25.40
2017-09-05T15:26:29.945Z,25.20
2017-09-05T15:28:56.056Z,25.10
2017-09-05T15:31:23.196Z,25.10
2017-09-05T15:33:50.215Z,25.00
2017-09-05T15:36:16.679Z,24.90
2017-09-05T15:38:42.723Z,24.90
2017-09-05T15:41:08.728Z,24.90
2017-09-05T15:43:34.790Z,24.90
2017-09-05T15:46:00.760Z,24.90
2017-09-05T15:48:28.194Z,24.90
2017-09-05T15:50:55.779Z,24.80
2017-09-05T15:53:22.550Z,24.80
2017-09-05T15:55:48.599Z,24.60
2017-09-05T15:58:14.611Z,24.60
2017-09-05T16:00:40.745Z,24.60
2017-09-05T16:03:07.643Z,24.60
2017-09-05T16:05:34.839Z,24.60
2017-09-05T16:08:01.164Z,24.60
2017-09-05T16:10:27.339Z,24.50
2017-09-05T16:12:54.203Z,24.40
2017-09-05T16:15:20.501Z,24.30
2017-09-05T16:17:47.377Z,24.40
2017-09-05T16:20:15.984Z,24.60
2017-09-05T16:22:42.672Z,24.40
2017-09-05T16:25:11.798Z,24.30
2017-09-05T16:27:40.394Z,24.20
2017-09-05T16:30:06.626Z,24.20
2017-09-05T16:32:32.581Z,24.20
2017-09-05T16:34:58.547Z,24.10
2017-09-05T16:37:24.672Z,24.30
2017-09-05T16:39:50.771Z,24.30
2017-09-05T16:42:16.809Z,24.30
2017-09-05T16:44:42.833Z,24.40
2017-09-05T16:47:08.820Z,24.60
2017-09-05T16:49:34.992Z,24.90
2017-09-05T16:52:00.960Z,25.30
2017-09-05T16:54:26.988Z,25.50
2017-09-05T16:56:52.957Z,25.60
2017-09-05T16:59:18.979Z,25.60
2017-09-05T17:01:45.222Z,25.40
2017-09-05T17:04:11.204Z,25.30
2017-09-05T17:06:37.370Z,25.10
2017-09-05T17:09:03.371Z,25.00
2017-09-05T17:11:29.456Z,25.00
2017-09-05T17:13:55.388Z,24.90
2017-09-05T17:16:22.383Z,24.90
2017-09-05T17:18:48.385Z,24.80
2017-09-05T17:21:15.945Z,25.00
2017-09-05T17:23:41.935Z,25.30
2017-09-05T17:26:07.881Z,25.40
2017-09-05T17:28:33.905Z,25.20
2017-09-05T17:31:00.199Z,25.00
2017-09-05T17:33:26.253Z,24.80
2017-09-05T17:35:52.248Z,24.60
2017-09-05T17:38:18.256Z,24.40
2017-09-05T17:40:44.231Z,24.30
2017-09-05T17:43:10.262Z,24.20
2017-09-05T17:45:36.191Z,24.20
2017-09-05T17:48:02.448Z,24.10
2017-09-05T17:50:29.146Z,24.10
2017-09-05T17:52:55.297Z,24.10
2017-09-05T17:55:21.289Z,24.00
2017-09-05T17:57:47.784Z,24.00
2017-09-05T18:00:15.755Z,24.00
2017-09-05T18:02:55.500Z,23.70
2017-09-05T18:05:21.661Z,23.80
2017-09-05T18:07:49.610Z,23.70
2017-09-05T18:10:25.854Z,23.60
2017-09-05T18:12:56.348Z,23.60
2017-09-05T18:15:23.294Z,23.60
2017-09-05T18:17:50.885Z,23.60
2017-09-05T18:20:17.008Z,23.60
2017-09-05T18:22:43.024Z,23.60
2017-09-05T18:25:10.615Z,23.60
2017-09-05T18:27:37.701Z,23.50
2017-09-05T18:30:06.823Z,23.40
2017-09-05T18:32:33.515Z,23.40
2017-09-05T18:34:59.611Z,23.40
2017-09-05T18:39:57.437Z,23.20
2017-09-05T18:42:25.966Z,23.30
2017-09-05T18:44:52.550Z,23.20
2017-09-05T18:47:18.842Z,23.20
2017-09-05T18:49:46.936Z,23.20
2017-09-05T18:52:12.953Z,23.10
2017-09-05T18:54:39.304Z,23.10
2017-09-05T18:57:05.336Z,23.10
2017-09-05T18:59:33.173Z,23.00
2017-09-05T19:01:59.784Z,23.00
2017-09-05T19:04:25.897Z,23.00
2017-09-05T19:06:51.957Z,23.00
2017-09-05T19:09:18.574Z,23.00
2017-09-05T19:11:45.172Z,22.80
2017-09-05T19:14:12.798Z,22.90
2017-09-05T19:16:38.786Z,22.90
2017-09-05T19:19:05.612Z,22.90
2017-09-05T19:21:34.518Z,22.80
2017-09-05T19:24:02.277Z,22.90
2017-09-05T19:26:29.488Z,22.90
2017-09-05T19:28:55.577Z,22.80
2017-09-05T19:31:22.421Z,22.80
2017-09-05T19:33:48.734Z,22.80
2017-09-05T19:36:14.869Z,22.90
2017-09-05T19:38:41.046Z,22.80
2017-09-05T19:41:08.150Z,22.80
2017-09-05T19:43:36.623Z,22.80
2017-09-05T19:46:02.961Z,22.70
2017-09-05T19:48:29.856Z,22.70
2017-09-05T19:50:55.851Z,22.70
2017-09-05T19:53:23.949Z,22.50
2017-09-05T19:55:50.625Z,22.40
2017-09-05T19:58:17.648Z,22.40
2017-09-05T20:00:44.039Z,22.40
2017-09-05T20:03:11.850Z,22.50
2017-09-05T20:05:38.731Z,22.50
2017-09-05T20:08:04.701Z,22.50
2017-09-05T20:10:32.885Z,22.50
2017-09-05T20:12:59.344Z,22.50
2017-09-05T20:15:26.159Z,22.60
2017-09-05T20:17:52.177Z,22.50
2017-09-05T20:20:19.243Z,22.40
2017-09-05T20:22:45.239Z,22.40
2017-09-05T20:25:12.290Z,22.40
2017-09-05T20:27:38.331Z,22.30
2017-09-05T20:30:04.386Z,22.40
2017-09-05T20:32:34.242Z,22.40
2017-09-05T20:35:02.192Z,22.30
2017-09-05T20:37:29.214Z,22.40
2017-09-05T20:39:55.240Z,22.40
2017-09-05T20:44:56.953Z,22.30
2017-09-05T20:49:57.718Z,22.40
2017-09-05T20:52:31.468Z,22.40
2017-09-05T20:54:59.208Z,22.40
2017-09-05T20:57:26.154Z,22.30
2017-09-05T20:59:55.282Z,22.30
2017-09-05T21:05:00.068Z,22.30
2017-09-05T21:07:29.744Z,22.30
2017-09-05T21:12:35.796Z,22.30
2017-09-05T21:15:01.816Z,22.30
2017-09-05T21:17:28.463Z,22.20
2017-09-05T21:19:54.478Z,22.20
2017-09-05T21:22:20.506Z,22.20
2017-09-05T21:24:47.503Z,22.10
2017-09-05T21:27:13.519Z,22.10
2017-09-05T21:29:40.821Z,21.80
2017-09-05T21:32:09.118Z,21.90
2017-09-05T21:34:36.104Z,21.90
2017-09-05T21:37:02.916Z,21.90
2017-09-05T21:39:29.796Z,21.90
2017-09-05T21:41:55.768Z,21.90
2017-09-05T21:44:21.865Z,21.90
2017-09-05T21:46:48.150Z,21.90
2017-09-05T21:49:15.220Z,21.80
2017-09-05T21:51:41.301Z,21.60
2017-09-05T21:54:08.078Z,21.60
2017-09-05T21:56:34.837Z,21.50
2017-09-05T21:59:00.863Z,21.50
2017-09-05T22:01:26.820Z,21.30
2017-09-05T22:03:54.701Z,21.30
2017-09-05T22:06:21.579Z,21.30
2017-09-05T22:08:47.567Z,21.30
2017-09-05T22:11:14.588Z,21.20
2017-09-05T22:13:40.897Z,21.30
2017-09-05T22:16:06.858Z,21.10
2017-09-05T22:18:39.839Z,21.00
2017-09-05T22:21:11.920Z,21.00
2017-09-05T22:23:38.296Z,21.00
2017-09-05T22:26:10.444Z,21.00
2017-09-05T22:28:42.451Z,21.00
2017-09-05T22:31:09.295Z,21.00
2017-09-05T22:33:35.289Z,21.10
2017-09-05T22:36:02.691Z,21.00
2017-09-05T22:38:29.518Z,21.10
2017-09-05T22:40:56.922Z,21.10
2017-09-05T22:43:22.868Z,21.00
2017-09-05T22:45:48.963Z,21.10
2017-09-05T22:48:14.916Z,21.10
2017-09-05T22:50:40.964Z,21.00
2017-09-05T22:53:07.703Z,21.00
2017-09-05T22:55:35.306Z,21.10
2017-09-05T22:58:02.235Z,20.90
2017-09-05T23:00:28.649Z,20.70
2017-09-05T23:02:56.091Z,20.80
2017-09-05T23:05:22.057Z,20.70
2017-09-05T23:07:48.074Z,20.60
2017-09-05T23:10:14.103Z,20.70
2017-09-05T23:12:40.712Z,20.70
2017-09-05T23:15:12.200Z,20.80
2017-09-05T23:17:38.903Z,20.80
2017-09-05T23:20:05.334Z,20.80
2017-09-05T23:22:31.366Z,20.70
2017-09-05T23:24:58.938Z,20.80
2017-09-05T23:27:24.888Z,20.80
2017-09-05T23:29:51.013Z,20.70
2017-09-05T23:32:20.034Z,20.70
2017-09-05T23:34:46.592Z,20.70
2017-09-05T23:37:14.539Z,20.70
2017-09-05T23:39:40.489Z,20.80
2017-09-05T23:42:06.733Z,20.80
2017-09-05T23:44:34.137Z,20.70
2017-09-05T23:47:01.039Z,20.60
2017-09-05T23:49:27.027Z,20.60
2017-09-05T23:51:53.057Z,20.60
2017-09-05T23:54:19.578Z,20.50
2017-09-05T23:56:46.176Z,20.50
2017-09-05T23:59:12.166Z,20.30
